createdAt,value
2017-09-24T00:00:54.894Z,47.47
2017-09-24T00:03:23.281Z,46.40
2017-09-24T00:05:51.651Z,54.07
2017-09-24T00:08:20.048Z,49.30
2017-09-24T00:10:49.185Z,56.10
2017-09-24T00:13:17.590Z,47.83
2017-09-24T00:15:45.964Z,49.80
2017-09-24T00:18:14.334Z,51.90
2017-09-24T00:20:42.796Z,49.60
2017-09-24T00:23:11.265Z,52.17
2017-09-24T00:25:39.447Z,54.20
2017-09-24T00:28:07.808Z,49.67
2017-09-24T00:30:36.070Z,52.30
2017-09-24T00:33:04.425Z,50.17
2017-09-24T00:35:32.600Z,52.27
2017-09-24T00:38:01.740Z,51.43
2017-09-24T00:40:29.934Z,51.07
2017-09-24T00:42:57.967Z,52.67
2017-09-24T00:45:26.327Z,50.43
2017-09-24T00:47:54.710Z,51.33
2017-09-24T00:50:23.322Z,47.63
2017-09-24T00:52:51.727Z,51.13
2017-09-24T00:55:19.413Z,51.97
2017-09-24T00:57:47.399Z,48.00
2017-09-24T01:00:15.093Z,52.37
2017-09-24T01:02:43.458Z,57.50
2017-09-24T01:05:11.852Z,49.93
2017-09-24T01:07:40.390Z,51.27
2017-09-24T01:10:08.839Z,56.50
2017-09-24T01:12:37.196Z,54.17
2017-09-24T01:15:05.218Z,54.37
2017-09-24T01:17:33.601Z,55.17
2017-09-24T01:20:01.642Z,54.67
2017-09-24T01:22:30.062Z,54.90
2017-09-24T01:24:58.306Z,52.80
2017-09-24T01:27:26.787Z,51.10
2017-09-24T01:29:55.570Z,53.27
2017-09-24T01:32:23.598Z,55.60
2017-09-24T01:34:51.622Z,57.10
2017-09-24T01:37:19.666Z,54.80
2017-09-24T01:39:48.021Z,56.23
2017-09-24T01:42:17.199Z,50.77
2017-09-24T01:44:45.214Z,52.23
2017-09-24T01:47:13.602Z,51.40
2017-09-24T01:49:41.651Z,50.43
2017-09-24T01:52:09.668Z,48.80
2017-09-24T01:54:37.893Z,53.30
2017-09-24T01:57:05.568Z,53.30
2017-09-24T01:59:33.596Z,49.17
2017-09-24T02:02:01.971Z,50.80
2017-09-24T02:04:30.401Z,46.47
2017-09-24T02:06:58.769Z,47.17
2017-09-24T02:09:27.139Z,47.60
2017-09-24T02:11:56.226Z,49.07
2017-09-24T02:14:25.005Z,46.03
2017-09-24T02:16:53.364Z,47.20
2017-09-24T02:19:21.736Z,47.70
2017-09-24T02:21:50.437Z,48.57
2017-09-24T02:24:18.818Z,48.37
2017-09-24T02:26:47.205Z,49.60
2017-09-24T02:29:15.591Z,47.33
2017-09-24T02:31:43.770Z,46.13
2017-09-24T02:34:12.147Z,45.40
2017-09-24T02:36:40.513Z,45.00
2017-09-24T02:39:08.886Z,44.53
2017-09-24T02:41:37.262Z,45.33
2017-09-24T02:44:05.441Z,42.80
2017-09-24T02:46:34.489Z,44.07
2017-09-24T02:49:02.871Z,44.40
2017-09-24T02:51:31.234Z,45.63
2017-09-24T02:54:00.371Z,44.67
2017-09-24T02:56:28.726Z,42.77
2017-09-24T02:58:57.091Z,43.07
2017-09-24T03:01:25.466Z,48.17
2017-09-24T03:03:53.891Z,47.37
2017-09-24T03:06:22.366Z,46.73
2017-09-24T03:08:50.743Z,43.30
2017-09-24T03:11:19.121Z,45.70
2017-09-24T03:13:47.154Z,45.40
2017-09-24T03:16:15.722Z,43.63
2017-09-24T03:18:44.087Z,44.07
2017-09-24T03:21:12.551Z,44.37
2017-09-24T03:23:40.904Z,49.13
2017-09-24T03:26:09.291Z,52.90
2017-09-24T03:28:39.164Z,46.60
2017-09-24T03:31:07.540Z,49.20
2017-09-24T03:33:36.105Z,51.07
2017-09-24T03:36:04.472Z,49.20
2017-09-24T03:38:32.842Z,50.27
2017-09-24T03:41:01.995Z,44.23
2017-09-24T03:43:30.378Z,43.40
2017-09-24T03:45:59.558Z,40.73
2017-09-24T03:48:28.002Z,49.30
2017-09-24T03:50:56.395Z,47.03
2017-09-24T03:53:24.782Z,42.30
2017-09-24T03:55:53.137Z,40.40
2017-09-24T03:58:21.509Z,40.93
2017-09-24T04:00:49.879Z,40.33
2017-09-24T04:03:18.250Z,41.47
2017-09-24T04:05:46.613Z,42.77
2017-09-24T04:08:15.009Z,43.97
2017-09-24T04:10:43.573Z,46.40
2017-09-24T04:13:11.938Z,42.73
2017-09-24T04:15:41.086Z,40.67
2017-09-24T04:18:09.471Z,39.30
2017-09-24T04:20:37.838Z,38.37
2017-09-24T04:23:06.220Z,38.37
2017-09-24T04:25:34.583Z,42.40
2017-09-24T04:28:02.950Z,40.67
2017-09-24T04:30:31.335Z,37.40
2017-09-24T04:32:59.729Z,37.87
2017-09-24T04:35:28.133Z,39.00
2017-09-24T04:37:57.632Z,36.93
2017-09-24T04:40:26.227Z,36.70
2017-09-24T04:42:54.631Z,39.00
2017-09-24T04:45:23.208Z,40.80
2017-09-24T04:47:51.592Z,39.50
2017-09-24T04:50:19.956Z,42.10
2017-09-24T04:52:48.319Z,38.60
2017-09-24T04:55:16.683Z,39.83
2017-09-24T04:57:45.814Z,40.60
2017-09-24T05:00:14.199Z,43.60
2017-09-24T05:02:42.759Z,39.73
2017-09-24T05:05:11.350Z,34.10
2017-09-24T05:07:39.708Z,37.17
2017-09-24T05:10:08.202Z,38.70
2017-09-24T05:12:36.599Z,40.20
2017-09-24T05:15:05.152Z,38.53
2017-09-24T05:17:33.529Z,35.30
2017-09-24T05:20:01.893Z,35.30
2017-09-24T05:22:30.258Z,36.47
2017-09-24T05:24:58.639Z,35.50
2017-09-24T05:27:27.133Z,35.87
2017-09-24T05:29:55.490Z,36.30
2017-09-24T05:32:23.531Z,44.00
2017-09-24T05:34:51.718Z,39.47
2017-09-24T05:37:20.123Z,36.67
2017-09-24T05:39:48.469Z,35.93
2017-09-24T05:42:17.613Z,39.10
2017-09-24T05:44:45.975Z,36.47
2017-09-24T05:47:14.387Z,34.77
2017-09-24T05:49:42.762Z,37.90
2017-09-24T05:52:11.303Z,39.23
2017-09-24T05:54:39.750Z,38.00
2017-09-24T05:57:08.154Z,38.00
2017-09-24T05:59:36.521Z,39.10
2017-09-24T06:02:04.896Z,37.60
2017-09-24T06:04:33.267Z,35.80
2017-09-24T06:07:01.868Z,38.07
2017-09-24T06:09:30.240Z,34.67
2017-09-24T06:11:58.632Z,33.70
2017-09-24T06:14:27.659Z,38.10
2017-09-24T06:16:56.044Z,35.13
2017-09-24T06:19:24.446Z,35.63
2017-09-24T06:21:52.801Z,35.50
2017-09-24T06:24:21.212Z,34.33
2017-09-24T06:26:49.590Z,34.73
2017-09-24T06:29:17.956Z,38.00
2017-09-24T06:31:46.349Z,36.63
2017-09-24T06:34:14.768Z,35.20
2017-09-24T06:36:44.148Z,35.37
2017-09-24T06:39:12.523Z,34.73
2017-09-24T06:41:40.917Z,37.07
2017-09-24T06:44:10.095Z,34.53
2017-09-24T06:46:38.508Z,35.60
2017-09-24T06:49:06.873Z,34.23
2017-09-24T06:51:35.266Z,35.13
2017-09-24T06:54:03.670Z,37.33
2017-09-24T06:56:32.071Z,33.73
2017-09-24T06:59:00.490Z,37.50
2017-09-24T07:01:29.136Z,43.20
2017-09-24T07:03:57.533Z,38.40
2017-09-24T07:06:25.910Z,41.40
2017-09-24T07:08:54.289Z,39.27
2017-09-24T07:11:23.492Z,41.00
2017-09-24T07:13:51.904Z,40.43
2017-09-24T07:16:20.429Z,44.00
2017-09-24T07:18:48.821Z,41.97
2017-09-24T07:21:17.455Z,39.07
2017-09-24T07:23:45.833Z,36.60
2017-09-24T07:26:15.326Z,39.57
2017-09-24T07:28:43.714Z,39.40
2017-09-24T07:31:11.973Z,38.13
2017-09-24T07:33:40.353Z,39.13
2017-09-24T07:36:08.729Z,37.27
2017-09-24T07:38:37.112Z,41.87
2017-09-24T07:41:05.580Z,36.87
2017-09-24T07:43:33.942Z,37.00
2017-09-24T07:46:02.404Z,36.80
2017-09-24T07:48:30.802Z,37.40
2017-09-24T07:50:59.229Z,34.87
2017-09-24T07:53:29.140Z,37.40
2017-09-24T07:55:57.547Z,39.97
2017-09-24T07:58:25.995Z,37.10
2017-09-24T08:00:54.384Z,39.47
2017-09-24T08:03:22.766Z,42.10
2017-09-24T08:05:51.127Z,40.60
2017-09-24T08:08:21.010Z,38.53
2017-09-24T08:10:49.396Z,47.13
2017-09-24T08:13:18.054Z,46.90
2017-09-24T08:15:46.417Z,49.27
2017-09-24T08:18:15.108Z,44.83
2017-09-24T08:20:44.898Z,44.43
2017-09-24T08:23:13.297Z,46.17
2017-09-24T08:25:41.693Z,44.80
2017-09-24T08:28:10.969Z,44.40
2017-09-24T08:30:39.414Z,42.37
2017-09-24T08:33:07.779Z,49.60
2017-09-24T08:35:36.177Z,46.43
2017-09-24T08:38:05.323Z,46.33
2017-09-24T08:40:33.771Z,47.13
2017-09-24T08:43:02.163Z,48.87
2017-09-24T08:45:30.617Z,45.73
2017-09-24T08:47:58.990Z,48.50
2017-09-24T08:50:27.178Z,44.43
2017-09-24T08:52:55.565Z,46.77
2017-09-24T08:55:23.941Z,50.07
2017-09-24T08:57:52.375Z,50.43
2017-09-24T09:00:20.758Z,44.60
2017-09-24T09:02:49.139Z,45.40
2017-09-24T09:05:17.503Z,45.13
2017-09-24T09:07:45.866Z,45.30
2017-09-24T09:10:14.229Z,46.30
2017-09-24T09:12:42.656Z,48.10
2017-09-24T09:15:11.035Z,45.00
2017-09-24T09:17:39.614Z,42.90
2017-09-24T09:20:07.991Z,42.67
2017-09-24T09:22:36.418Z,40.90
2017-09-24T09:25:04.777Z,43.30
2017-09-24T09:27:33.165Z,41.30
2017-09-24T09:30:01.538Z,44.07
2017-09-24T09:32:42.082Z,41.40
2017-09-24T09:35:20.155Z,45.93
2017-09-24T09:37:48.549Z,47.50
2017-09-24T09:40:16.748Z,48.83
2017-09-24T09:42:44.944Z,44.00
2017-09-24T09:45:24.523Z,47.10
2017-09-24T09:47:52.904Z,41.23
2017-09-24T09:50:21.133Z,42.30
2017-09-24T09:52:49.498Z,41.93
2017-09-24T09:55:17.862Z,45.70
2017-09-24T09:57:46.246Z,47.03
2017-09-24T10:00:14.598Z,44.23
2017-09-24T10:02:42.960Z,46.90
2017-09-24T10:05:11.340Z,45.63
2017-09-24T10:07:50.904Z,48.87
2017-09-24T10:10:19.316Z,44.57
2017-09-24T10:12:47.746Z,46.80
2017-09-24T10:15:15.980Z,49.33
2017-09-24T10:17:44.305Z,48.33
2017-09-24T10:20:13.285Z,50.40
2017-09-24T10:22:41.458Z,47.73
2017-09-24T10:25:10.304Z,48.80
2017-09-24T10:27:38.672Z,49.10
2017-09-24T10:30:18.429Z,52.77
2017-09-24T10:32:46.615Z,50.23
2017-09-24T10:35:17.057Z,52.73
2017-09-24T10:37:45.439Z,48.70
2017-09-24T10:40:13.801Z,52.67
2017-09-24T10:42:41.991Z,50.67
2017-09-24T10:45:10.403Z,52.57
2017-09-24T10:47:38.795Z,50.33
2017-09-24T10:50:07.278Z,52.63
2017-09-24T10:52:35.679Z,56.20
2017-09-24T10:55:04.057Z,56.37
2017-09-24T10:57:32.454Z,52.80
2017-09-24T11:00:00.829Z,54.33
2017-09-24T11:02:29.237Z,53.03
2017-09-24T11:04:57.509Z,53.53
2017-09-24T11:07:25.744Z,54.10
2017-09-24T11:09:54.147Z,52.07
2017-09-24T11:12:22.531Z,54.63
2017-09-24T11:14:50.892Z,57.80
2017-09-24T11:17:19.266Z,52.10
2017-09-24T11:19:47.802Z,54.03
2017-09-24T11:22:16.167Z,53.07
2017-09-24T11:24:44.337Z,55.83
2017-09-24T11:27:12.724Z,51.60
2017-09-24T11:29:41.220Z,55.43
2017-09-24T11:32:09.789Z,54.33
2017-09-24T11:34:38.187Z,55.13
2017-09-24T11:37:06.584Z,54.50
2017-09-24T11:39:34.951Z,53.37
2017-09-24T11:42:03.330Z,55.30
2017-09-24T11:44:31.717Z,50.07
2017-09-24T11:47:00.128Z,52.43
2017-09-24T11:49:28.704Z,51.70
2017-09-24T11:51:58.020Z,51.50
2017-09-24T11:54:26.485Z,48.20
2017-09-24T11:56:55.015Z,44.83
2017-09-24T11:59:23.397Z,47.07
2017-09-24T12:01:51.609Z,45.90
2017-09-24T12:04:20.160Z,43.87
2017-09-24T12:06:48.566Z,42.47
2017-09-24T12:09:16.927Z,41.60
2017-09-24T12:11:45.396Z,44.80
2017-09-24T12:14:14.535Z,40.90
2017-09-24T12:16:42.889Z,37.37
2017-09-24T12:19:11.281Z,34.40
2017-09-24T12:21:39.647Z,31.97
2017-09-24T12:24:08.048Z,32.80
2017-09-24T12:26:36.418Z,33.33
2017-09-24T12:29:04.976Z,33.80
2017-09-24T12:31:33.158Z,32.80
2017-09-24T12:34:01.535Z,33.00
2017-09-24T12:36:29.901Z,30.43
2017-09-24T12:38:58.290Z,31.57
2017-09-24T12:41:26.852Z,29.17
2017-09-24T12:43:56.004Z,27.97
2017-09-24T12:46:24.364Z,29.63
2017-09-24T12:48:52.768Z,30.83
2017-09-24T12:51:21.277Z,28.80
2017-09-24T12:53:49.669Z,28.50
2017-09-24T12:56:18.056Z,28.33
2017-09-24T12:58:46.439Z,27.20
2017-09-24T13:01:14.831Z,29.10
2017-09-24T13:03:43.244Z,27.83
2017-09-24T13:06:12.426Z,24.53
2017-09-24T13:08:40.809Z,23.83
2017-09-24T13:11:09.167Z,24.30
2017-09-24T13:13:37.594Z,25.70
2017-09-24T13:16:06.266Z,23.93
2017-09-24T13:18:34.750Z,23.13
2017-09-24T13:21:03.121Z,20.53
2017-09-24T13:23:31.509Z,20.43
2017-09-24T13:26:00.118Z,19.90
2017-09-24T13:28:28.478Z,20.67
2017-09-24T13:30:56.869Z,22.20
2017-09-24T13:33:25.269Z,23.77
2017-09-24T13:35:53.670Z,20.63
2017-09-24T13:38:22.830Z,20.70
2017-09-24T13:40:51.211Z,21.03
2017-09-24T13:43:19.581Z,20.97
2017-09-24T13:45:47.960Z,21.10
2017-09-24T13:48:16.327Z,21.70
2017-09-24T13:50:45.092Z,21.27
2017-09-24T13:53:12.770Z,22.97
2017-09-24T13:55:41.172Z,20.97
2017-09-24T13:58:09.566Z,20.13
2017-09-24T14:00:37.928Z,20.43
2017-09-24T14:03:06.303Z,20.27
2017-09-24T14:05:34.659Z,18.13
2017-09-24T14:08:03.038Z,19.20
2017-09-24T14:10:31.463Z,18.97
2017-09-24T14:12:59.825Z,19.37
2017-09-24T14:15:28.418Z,18.07
2017-09-24T14:17:56.798Z,18.07
2017-09-24T14:20:25.246Z,19.93
2017-09-24T14:22:53.647Z,18.83
2017-09-24T14:25:21.350Z,18.90
2017-09-24T14:27:49.731Z,19.57
2017-09-24T14:30:18.871Z,19.40
2017-09-24T14:32:47.952Z,18.83
2017-09-24T14:35:16.572Z,19.80
2017-09-24T14:37:44.929Z,18.43
2017-09-24T14:40:13.319Z,19.60
2017-09-24T14:42:41.691Z,21.53
2017-09-24T14:45:09.887Z,18.90
2017-09-24T14:47:38.530Z,18.77
2017-09-24T14:50:07.114Z,19.97
2017-09-24T14:52:35.955Z,17.73
2017-09-24T14:55:05.194Z,19.97
2017-09-24T14:57:33.580Z,18.97
2017-09-24T15:00:01.977Z,18.00
2017-09-24T15:02:30.362Z,18.60
2017-09-24T15:04:58.796Z,18.00
2017-09-24T15:07:26.991Z,20.70
2017-09-24T15:09:55.203Z,19.40
2017-09-24T15:12:23.436Z,21.40
2017-09-24T15:14:51.637Z,20.13
2017-09-24T15:17:19.327Z,20.37
2017-09-24T15:19:47.128Z,19.10
2017-09-24T15:22:15.167Z,21.10
2017-09-24T15:24:43.538Z,22.30
2017-09-24T15:27:11.986Z,20.80
2017-09-24T15:29:40.162Z,21.53
2017-09-24T15:32:08.583Z,21.77
2017-09-24T15:34:36.941Z,22.20
2017-09-24T15:37:05.534Z,20.13
2017-09-24T15:39:33.905Z,20.37
2017-09-24T15:42:02.278Z,26.63
2017-09-24T15:44:30.673Z,26.23
2017-09-24T15:46:59.042Z,37.23
2017-09-24T15:49:27.415Z,37.20
2017-09-24T15:51:55.898Z,37.43
2017-09-24T15:54:24.266Z,37.80
2017-09-24T15:56:52.650Z,35.10
2017-09-24T15:59:21.121Z,32.40
2017-09-24T16:01:49.937Z,34.73
2017-09-24T16:04:18.297Z,33.70
2017-09-24T16:06:46.667Z,33.70
2017-09-24T16:09:15.090Z,35.23
2017-09-24T16:11:43.269Z,34.43
2017-09-24T16:14:12.214Z,34.30
2017-09-24T16:16:40.578Z,33.03
2017-09-24T16:19:09.167Z,33.70
2017-09-24T16:21:37.543Z,32.97
2017-09-24T16:24:05.913Z,35.90
2017-09-24T16:26:34.286Z,34.50
2017-09-24T16:29:02.771Z,34.90
2017-09-24T16:31:31.195Z,35.50
2017-09-24T16:33:59.379Z,34.43
2017-09-24T16:36:27.582Z,34.90
2017-09-24T16:38:55.790Z,36.17
2017-09-24T16:41:24.253Z,34.23
2017-09-24T16:43:52.442Z,36.17
2017-09-24T16:46:20.646Z,36.27
2017-09-24T16:48:49.811Z,33.87
2017-09-24T16:51:18.352Z,35.97
2017-09-24T16:53:46.709Z,37.53
2017-09-24T16:56:14.916Z,36.13
2017-09-24T16:58:43.299Z,33.63
2017-09-24T17:01:11.661Z,34.40
2017-09-24T17:03:39.862Z,35.17
2017-09-24T17:06:08.227Z,34.97
2017-09-24T17:08:36.602Z,35.57
2017-09-24T17:11:04.991Z,34.53
2017-09-24T17:13:33.427Z,33.40
2017-09-24T17:16:01.808Z,34.60
2017-09-24T17:18:30.182Z,36.40
2017-09-24T17:20:58.575Z,33.47
2017-09-24T17:23:26.960Z,34.27
2017-09-24T17:25:55.331Z,34.33
2017-09-24T17:28:23.529Z,31.83
2017-09-24T17:30:51.907Z,32.17
2017-09-24T17:33:20.088Z,34.07
2017-09-24T17:35:48.457Z,33.00
2017-09-24T17:38:16.832Z,34.63
2017-09-24T17:40:45.220Z,34.60
2017-09-24T17:43:13.632Z,33.80
2017-09-24T17:45:42.111Z,34.07
2017-09-24T17:48:10.467Z,34.20
2017-09-24T17:50:38.851Z,33.93
2017-09-24T17:53:07.199Z,36.93
2017-09-24T17:55:35.578Z,37.00
2017-09-24T17:58:04.351Z,35.20
2017-09-24T18:00:32.729Z,38.77
2017-09-24T18:03:01.110Z,37.33
2017-09-24T18:05:29.491Z,39.17
2017-09-24T18:07:58.825Z,37.10
2017-09-24T18:10:27.203Z,36.70
2017-09-24T18:12:55.653Z,37.97
2017-09-24T18:15:24.791Z,35.90
2017-09-24T18:17:53.029Z,35.60
2017-09-24T18:20:21.400Z,35.57
2017-09-24T18:22:50.557Z,36.43
2017-09-24T18:25:18.994Z,35.43
2017-09-24T18:27:47.351Z,36.43
2017-09-24T18:30:15.730Z,35.70
2017-09-24T18:32:44.955Z,36.60
2017-09-24T18:35:13.332Z,35.37
2017-09-24T18:37:41.793Z,36.47
2017-09-24T18:40:10.174Z,34.87
2017-09-24T18:42:38.790Z,33.03
2017-09-24T18:45:07.188Z,35.07
2017-09-24T18:47:36.166Z,34.10
2017-09-24T18:50:04.337Z,32.70
2017-09-24T18:52:32.526Z,33.10
2017-09-24T18:55:00.908Z,33.20
2017-09-24T18:57:29.313Z,32.27
2017-09-24T18:59:57.687Z,33.27
2017-09-24T19:02:26.076Z,32.93
2017-09-24T19:04:54.452Z,33.20
2017-09-24T19:07:24.541Z,32.70
2017-09-24T19:09:53.857Z,30.83
2017-09-24T19:12:22.242Z,30.43
2017-09-24T19:14:50.804Z,30.30
2017-09-24T19:17:19.395Z,29.63
2017-09-24T19:19:48.075Z,30.73
2017-09-24T19:22:16.530Z,30.77
2017-09-24T19:24:45.335Z,30.00
2017-09-24T19:27:13.820Z,29.77
2017-09-24T19:29:42.356Z,29.77
2017-09-24T19:32:10.876Z,27.80
2017-09-24T19:34:39.358Z,29.40
2017-09-24T19:37:07.761Z,29.20
2017-09-24T19:39:36.184Z,31.07
2017-09-24T19:42:04.585Z,28.60
2017-09-24T19:44:33.030Z,29.33
2017-09-24T19:47:01.229Z,31.73
2017-09-24T19:49:29.430Z,30.20
2017-09-24T19:51:57.606Z,28.93
2017-09-24T19:54:26.003Z,30.90
2017-09-24T19:56:54.216Z,28.10
2017-09-24T19:59:23.117Z,27.77
2017-09-24T20:01:51.564Z,27.60
2017-09-24T20:04:19.965Z,25.57
2017-09-24T20:06:48.356Z,26.13
2017-09-24T20:09:16.823Z,27.17
2017-09-24T20:11:45.203Z,25.87
2017-09-24T20:14:14.500Z,25.20
2017-09-24T20:16:42.891Z,22.63
2017-09-24T20:19:11.274Z,23.83
2017-09-24T20:21:39.649Z,24.47
2017-09-24T20:24:08.042Z,25.00
2017-09-24T20:26:38.119Z,24.83
2017-09-24T20:29:06.576Z,24.53
2017-09-24T20:31:34.995Z,24.60
2017-09-24T20:34:03.589Z,24.60
2017-09-24T20:36:32.031Z,23.30
2017-09-24T20:39:00.407Z,23.87
2017-09-24T20:41:28.777Z,25.80
2017-09-24T20:43:57.831Z,25.57
2017-09-24T20:46:26.224Z,28.33
2017-09-24T20:48:54.594Z,26.60
2017-09-24T20:51:23.927Z,28.57
2017-09-24T20:53:52.284Z,30.07
2017-09-24T20:56:20.642Z,29.10
2017-09-24T20:58:49.270Z,29.50
2017-09-24T21:01:17.638Z,29.20
2017-09-24T21:03:46.122Z,28.20
2017-09-24T21:06:14.505Z,29.77
2017-09-24T21:08:42.891Z,27.80
2017-09-24T21:11:11.276Z,29.30
2017-09-24T21:13:43.923Z,28.00
2017-09-24T21:16:12.309Z,27.30
2017-09-24T21:18:40.771Z,28.27
2017-09-24T21:21:09.131Z,27.50
2017-09-24T21:23:38.282Z,26.20
2017-09-24T21:26:06.828Z,28.57
2017-09-24T21:28:35.206Z,27.50
2017-09-24T21:31:03.575Z,26.10
2017-09-24T21:33:31.942Z,25.83
2017-09-24T21:36:00.564Z,26.03
2017-09-24T21:38:29.016Z,27.57
2017-09-24T21:40:58.068Z,25.90
2017-09-24T21:43:26.615Z,26.20
2017-09-24T21:45:54.986Z,24.67
2017-09-24T21:48:23.399Z,24.60
2017-09-24T21:50:51.849Z,25.30
2017-09-24T21:53:20.226Z,26.43
2017-09-24T21:55:48.600Z,26.13
2017-09-24T21:58:17.040Z,23.93
2017-09-24T22:00:45.727Z,26.23
2017-09-24T22:03:14.090Z,26.03
2017-09-24T22:05:42.477Z,27.27
2017-09-24T22:08:10.963Z,26.40
2017-09-24T22:10:39.369Z,24.87
2017-09-24T22:13:08.750Z,24.60
2017-09-24T22:15:37.123Z,25.37
2017-09-24T22:18:05.686Z,26.17
2017-09-24T22:20:34.165Z,24.80
2017-09-24T22:23:02.568Z,27.77
2017-09-24T22:25:31.165Z,26.30
2017-09-24T22:27:59.601Z,25.00
2017-09-24T22:30:28.000Z,27.63
2017-09-24T22:32:56.358Z,23.87
2017-09-24T22:35:24.738Z,24.20
2017-09-24T22:37:53.126Z,25.53
2017-09-24T22:40:21.518Z,23.63
2017-09-24T22:42:49.958Z,24.93
2017-09-24T22:45:18.330Z,25.63
2017-09-24T22:47:46.716Z,24.70
2017-09-24T22:50:15.317Z,25.50
2017-09-24T22:52:43.722Z,26.77
2017-09-24T22:55:12.249Z,27.43
2017-09-24T22:57:40.711Z,24.70
2017-09-24T23:00:09.089Z,25.83
2017-09-24T23:02:37.478Z,26.97
2017-09-24T23:05:05.868Z,25.93
2017-09-24T23:07:34.908Z,27.63
2017-09-24T23:10:03.279Z,26.47
2017-09-24T23:12:31.651Z,27.27
2017-09-24T23:15:00.040Z,25.30
2017-09-24T23:17:28.427Z,26.23
2017-09-24T23:19:57.392Z,27.10
2017-09-24T23:22:25.099Z,26.53
2017-09-24T23:24:53.451Z,25.90
2017-09-24T23:27:21.967Z,26.03
2017-09-24T23:29:50.480Z,27.10
2017-09-24T23:32:18.855Z,25.70
2017-09-24T23:34:48.725Z,26.40
2017-09-24T23:37:17.101Z,25.90
2017-09-24T23:39:45.476Z,23.50
2017-09-24T23:42:13.849Z,25.87
2017-09-24T23:44:42.231Z,26.40
2017-09-24T23:47:10.598Z,24.27
2017-09-24T23:49:39.040Z,24.97
2017-09-24T23:52:08.274Z,24.63
2017-09-24T23:54:36.717Z,25.90
2017-09-24T23:57:05.541Z,25.40
2017-09-24T23:59:33.909Z,26.20
